Time;durP1;ratioP1;P1;durP2;ratioP2;P2;SDS_P1;SDS_P2;PMS_P1;PMS_P2;Temp;Humidity;BMP_temperature;BMP_pressure;BME280_temperature;BME280_humidity;BME280_pressure;Samples;Min_cycle;Max_cycle;Signal;HPM_P1;HPM_P2
2023/11/19 00:01:17;;;;;;;4.45;1.05;;;10.00;1.00;;;;;;4993218;28;20419;-69
2023/11/19 00:03:43;;;;;;;3.60;0.50;;;10.10;1.00;;;;;;5011407;28;20405;-69
2023/11/19 00:06:11;;;;;;;4.10;1.00;;;10.10;1.00;;;;;;5012462;28;20476;-69
2023/11/19 00:08:36;;;;;;;5.10;0.93;;;10.10;1.00;;;;;;5012246;28;20420;-68
2023/11/19 00:11:03;;;;;;;3.90;0.70;;;10.20;1.00;;;;;;5011924;28;20807;-68
2023/11/19 00:13:28;;;;;;;4.60;0.90;;;10.20;1.00;;;;;;5011402;28;20525;-68
2023/11/19 00:15:54;;;;;;;4.37;0.90;;;10.20;1.00;;;;;;4992726;28;20493;-69
2023/11/19 00:18:19;;;;;;;3.60;0.60;;;10.20;1.00;;;;;;4992756;28;20395;-68
2023/11/19 00:20:45;;;;;;;4.30;0.70;;;10.10;6.20;;;;;;4992835;28;20752;-68
2023/11/19 00:23:10;;;;;;;3.80;0.60;;;10.20;57.40;;;;;;4992790;28;20414;-68
2023/11/19 00:25:36;;;;;;;4.47;1.40;;;10.10;92.70;;;;;;4992186;28;20910;-69
2023/11/19 00:28:01;;;;;;;3.80;0.63;;;10.00;99.90;;;;;;4992109;28;20923;-69
2023/11/19 00:30:27;;;;;;;6.10;0.70;;;10.10;99.90;;;;;;4992565;28;20783;-69
2023/11/19 00:32:52;;;;;;;4.13;0.83;;;10.10;99.90;;;;;;4992403;28;20402;-69
2023/11/19 00:35:18;;;;;;;5.10;1.00;;;10.10;99.90;;;;;;4991746;28;20423;-69
2023/11/19 00:37:45;;;;;;;4.03;0.93;;;10.10;99.90;;;;;;4991145;28;20486;-69
2023/11/19 00:40:11;;;;;;;3.60;0.50;;;10.10;99.90;;;;;;4972554;28;20503;-70
2023/11/19 00:42:37;;;;;;;3.53;0.60;;;10.10;1.00;;;;;;4972481;28;20399;-69
2023/11/19 00:45:03;;;;;;;4.43;1.00;;;10.00;1.00;;;;;;4972804;28;20389;-69
2023/11/19 00:47:28;;;;;;;4.32;0.60;;;10.10;1.00;;;;;;4971806;28;20404;-69
2023/11/19 00:49:53;;;;;;;3.80;0.50;;;10.20;1.00;;;;;;4972508;28;20891;-69
2023/11/19 00:52:19;;;;;;;3.83;0.55;;;10.30;1.00;;;;;;4972729;28;20531;-69
2023/11/19 00:54:44;;;;;;;3.90;0.50;;;10.30;99.90;;;;;;4973087;28;20420;-69
2023/11/19 00:57:10;;;;;;;3.70;0.70;;;10.20;99.90;;;;;;4986576;28;20389;-69
2023/11/19 00:59:36;;;;;;;3.37;0.30;;;10.30;1.00;;;;;;4991611;28;20815;-70
2023/11/19 01:02:06;;;;;;;4.00;0.80;;;10.40;99.90;;;;;;4991927;28;20406;-70
2023/11/19 01:04:35;;;;;;;3.70;0.50;;;10.50;99.90;;;;;;4991740;28;20410;-70
2023/11/19 01:07:03;;;;;;;3.83;0.70;;;10.50;99.90;;;;;;4991094;28;20386;-69
2023/11/19 01:09:32;;;;;;;4.32;0.57;;;10.60;99.90;;;;;;4991536;28;20780;-70
2023/11/19 01:11:58;;;;;;;3.50;0.50;;;10.70;99.90;;;;;;4991401;28;20425;-70
2023/11/19 01:14:23;;;;;;;3.80;0.40;;;10.70;99.90;;;;;;4991543;28;20908;-70
2023/11/19 01:16:49;;;;;;;3.80;0.70;;;10.80;42.20;;;;;;4991623;28;20410;-69
2023/11/19 01:19:14;;;;;;;6.70;0.63;;;10.80;88.00;;;;;;4991813;28;20430;-69
2023/11/19 01:21:40;;;;;;;3.80;0.80;;;10.80;99.90;;;;;;4991470;28;20506;-69
2023/11/19 01:24:09;;;;;;;3.40;0.40;;;10.70;99.90;;;;;;4991535;28;20383;-69
2023/11/19 01:26:34;;;;;;;3.95;0.50;;;10.80;99.90;;;;;;4990902;28;20398;-69
2023/11/19 01:29:01;;;;;;;3.40;0.37;;;10.90;99.90;;;;;;4991659;28;20741;-70
2023/11/19 01:31:26;;;;;;;3.40;0.40;;;10.90;99.90;;;;;;4991282;28;20773;-69
2023/11/19 01:33:52;;;;;;;3.50;0.40;;;10.90;99.90;;;;;;4991281;28;20489;-69
2023/11/19 01:36:17;;;;;;;3.67;0.40;;;11.00;99.90;;;;;;4990938;28;20738;-69
2023/11/19 01:38:43;;;;;;;3.80;0.43;;;10.90;99.90;;;;;;4991770;28;20471;-69
2023/11/19 01:41:09;;;;;;;3.80;0.50;;;10.90;99.90;;;;;;4990943;28;20405;-69
2023/11/19 01:43:35;;;;;;;3.87;0.40;;;11.10;99.90;;;;;;4989669;28;20387;-70
2023/11/19 01:46:03;;;;;;;3.40;0.40;;;11.10;99.90;;;;;;4969513;28;20958;-70
2023/11/19 01:48:29;;;;;;;3.40;0.30;;;11.10;35.40;;;;;;4969453;28;20392;-69
2023/11/19 01:50:56;;;;;;;3.40;0.40;;;11.20;6.80;;;;;;4972126;28;20388;-69
2023/11/19 01:53:22;;;;;;;3.88;0.60;;;11.30;1.00;;;;;;5009172;28;20500;-70
2023/11/19 01:55:49;;;;;;;3.50;0.47;;;11.20;1.00;;;;;;5010177;28;20799;-70
2023/11/19 01:58:15;;;;;;;3.67;0.47;;;11.30;1.00;;;;;;5011040;28;20381;-70
2023/11/19 02:00:41;;;;;;;4.10;0.70;;;11.20;1.00;;;;;;5010470;28;20401;-70
2023/11/19 02:03:08;;;;;;;3.30;0.20;;;11.30;1.00;;;;;;5010599;28;21272;-70
2023/11/19 02:05:34;;;;;;;3.40;0.20;;;11.30;1.00;;;;;;5010680;28;20400;-69
2023/11/19 02:08:00;;;;;;;3.30;0.20;;;11.20;1.00;;;;;;5010632;28;20771;-70
2023/11/19 02:10:26;;;;;;;3.50;0.50;;;11.20;98.30;;;;;;5009761;28;20397;-69
2023/11/19 02:12:52;;;;;;;3.50;0.60;;;11.20;27.80;;;;;;5010261;28;20397;-70
2023/11/19 02:15:19;;;;;;;3.40;0.30;;;11.20;99.90;;;;;;5009910;28;20427;-70
2023/11/19 02:17:44;;;;;;;3.50;0.38;;;11.30;99.90;;;;;;5010724;28;20425;-70
2023/11/19 02:20:13;;;;;;;3.40;0.20;;;11.40;46.30;;;;;;5009896;28;20429;-70
2023/11/19 02:22:38;;;;;;;3.30;0.30;;;11.30;1.00;;;;;;5010086;28;20388;-70
2023/11/19 02:25:07;;;;;;;4.40;0.40;;;11.30;99.90;;;;;;5009823;28;20739;-70
2023/11/19 02:27:57;;;;;;;3.90;0.40;;;11.40;99.90;;;;;;5010321;28;20436;-70
2023/11/19 02:30:29;;;;;;;3.40;0.30;;;11.40;99.90;;;;;;5010217;28;20447;-70
2023/11/19 02:32:58;;;;;;;3.50;0.30;;;11.50;99.90;;;;;;5010053;28;20389;-70
2023/11/19 02:35:27;;;;;;;3.40;0.30;;;11.60;99.90;;;;;;5009499;28;20826;-70
2023/11/19 02:37:54;;;;;;;4.30;0.30;;;11.60;1.00;;;;;;5009817;28;20401;-69
2023/11/19 02:40:19;;;;;;;3.40;0.30;;;11.60;1.00;;;;;;5009701;28;20389;-69
2023/11/19 02:42:45;;;;;;;3.50;0.40;;;11.70;1.00;;;;;;5009989;28;20400;-69
2023/11/19 02:45:14;;;;;;;3.47;0.28;;;11.80;1.00;;;;;;5009775;28;20740;-69
2023/11/19 02:47:44;;;;;;;3.50;0.30;;;11.90;1.00;;;;;;5009530;28;20385;-69
2023/11/19 02:50:14;;;;;;;3.50;0.40;;;11.90;99.90;;;;;;5009845;28;20757;-70
2023/11/19 02:52:41;;;;;;;3.50;0.30;;;11.90;99.90;;;;;;4989827;28;20485;-70
2023/11/19 02:55:09;;;;;;;5.40;0.50;;;11.90;99.90;;;;;;4990444;28;20429;-70
2023/11/19 02:57:35;;;;;;;3.50;0.30;;;11.90;99.90;;;;;;4990327;28;20466;-70
2023/11/19 03:00:04;;;;;;;3.50;0.30;;;11.80;99.90;;;;;;4990295;28;20414;-70
2023/11/19 03:02:33;;;;;;;3.50;0.30;;;11.90;99.90;;;;;;4994797;28;20437;-70
2023/11/19 03:04:59;;;;;;;3.60;0.40;;;11.90;99.90;;;;;;4990130;28;20468;-69
2023/11/19 03:07:25;;;;;;;3.70;0.40;;;12.00;99.90;;;;;;4988313;28;20422;-69
2023/11/19 03:09:51;;;;;;;3.80;0.57;;;12.00;99.90;;;;;;4987267;28;20968;-69
2023/11/19 03:12:16;;;;;;;3.90;0.60;;;11.90;99.90;;;;;;4988535;28;20394;-69
2023/11/19 03:14:42;;;;;;;3.80;0.50;;;12.00;99.90;;;;;;4988796;28;20426;-69
2023/11/19 03:17:09;;;;;;;3.88;0.73;;;12.20;99.90;;;;;;4988667;28;20452;-69
2023/11/19 03:19:35;;;;;;;5.00;0.75;;;12.20;99.90;;;;;;4989693;28;20473;-69
2023/11/19 03:22:01;;;;;;;4.63;0.67;;;12.20;99.90;;;;;;4989885;28;20490;-69
2023/11/19 03:24:27;;;;;;;3.83;0.60;;;12.10;99.90;;;;;;4989817;28;20383;-69
2023/11/19 03:26:52;;;;;;;4.05;0.60;;;12.20;99.90;;;;;;4989700;28;20502;-70
2023/11/19 03:29:18;;;;;;;3.70;0.40;;;12.40;99.90;;;;;;4989895;28;20401;-70
2023/11/19 03:31:47;;;;;;;3.70;0.40;;;12.50;77.10;;;;;;4990071;28;20388;-70
2023/11/19 03:34:12;;;;;;;4.10;0.47;;;12.40;25.50;;;;;;4989908;28;20546;-70
2023/11/19 03:36:39;;;;;;;4.10;0.33;;;12.30;20.30;;;;;;4989322;28;20485;-70
2023/11/19 03:39:05;;;;;;;3.55;0.30;;;12.10;34.70;;;;;;4989316;28;20414;-70
2023/11/19 03:41:30;;;;;;;3.70;0.30;;;12.00;95.80;;;;;;4989419;28;20893;-70
2023/11/19 03:43:56;;;;;;;3.50;0.30;;;12.00;99.90;;;;;;4989352;28;20398;-70
2023/11/19 03:46:22;;;;;;;3.50;0.30;;;12.00;99.90;;;;;;4989349;28;20418;-70
2023/11/19 03:48:48;;;;;;;3.80;0.30;;;11.90;99.90;;;;;;4989255;28;20394;-70
2023/11/19 03:51:15;;;;;;;3.50;0.30;;;11.90;99.90;;;;;;4989701;28;20390;-70
2023/11/19 03:53:43;;;;;;;3.58;0.35;;;11.80;99.90;;;;;;4989571;28;20394;-70
2023/11/19 03:56:09;;;;;;;3.90;0.50;;;11.80;99.90;;;;;;4989924;28;20502;-70
2023/11/19 03:58:35;;;;;;;3.60;0.40;;;11.90;99.90;;;;;;4987981;28;20498;-70
2023/11/19 04:01:02;;;;;;;3.50;0.30;;;11.70;99.90;;;;;;4988904;28;20407;-70
2023/11/19 04:03:27;;;;;;;3.50;0.28;;;11.70;1.00;;;;;;5005051;28;20401;-70
2023/11/19 04:05:53;;;;;;;3.40;0.30;;;11.70;1.00;;;;;;5009044;28;20474;-70
2023/11/19 04:08:19;;;;;;;3.40;0.20;;;11.80;1.00;;;;;;5008577;28;20404;-70
2023/11/19 04:10:45;;;;;;;3.60;0.30;;;11.90;1.00;;;;;;5009580;28;20397;-70
2023/11/19 04:13:10;;;;;;;3.40;0.30;;;12.00;1.00;;;;;;5008598;28;20408;-70
2023/11/19 04:15:36;;;;;;;3.40;0.30;;;12.00;1.00;;;;;;5008389;28;20420;-70
2023/11/19 04:18:01;;;;;;;3.40;0.20;;;12.00;1.00;;;;;;5008315;28;20392;-70
2023/11/19 04:20:27;;;;;;;4.00;0.30;;;12.10;1.00;;;;;;5008560;28;20480;-70
2023/11/19 04:22:53;;;;;;;3.40;0.30;;;12.10;1.00;;;;;;5010512;28;20409;-70
2023/11/19 04:25:19;;;;;;;3.80;0.30;;;12.20;1.00;;;;;;5012044;28;20911;-70
2023/11/19 04:27:45;;;;;;;3.50;0.30;;;12.20;1.00;;;;;;5012828;28;20472;-70
2023/11/19 04:30:11;;;;;;;3.50;0.30;;;12.20;1.00;;;;;;5011970;28;20763;-69
2023/11/19 04:32:37;;;;;;;3.33;0.20;;;12.20;1.00;;;;;;5011915;28;20392;-70
2023/11/19 04:35:03;;;;;;;3.40;0.30;;;12.20;1.00;;;;;;5011934;28;20421;-70
2023/11/19 04:37:28;;;;;;;3.30;0.20;;;12.20;1.00;;;;;;5012027;28;20451;-70
2023/11/19 04:39:54;;;;;;;3.63;0.30;;;12.20;1.00;;;;;;5011820;28;20787;-70
2023/11/19 04:42:22;;;;;;;3.50;0.40;;;12.30;1.00;;;;;;5011788;28;20405;-70
2023/11/19 04:44:47;;;;;;;3.40;0.20;;;12.40;1.00;;;;;;5009179;28;20389;-70
2023/11/19 04:47:14;;;;;;;3.40;0.20;;;12.40;99.90;;;;;;4992130;28;20897;-70
2023/11/19 04:49:45;;;;;;;5.10;0.50;;;12.40;99.90;;;;;;4992219;28;20466;-70
2023/11/19 04:52:11;;;;;;;3.40;0.30;;;12.40;99.90;;;;;;4992197;28;20409;-70
2023/11/19 04:54:43;;;;;;;4.50;0.30;;;12.40;99.90;;;;;;4992343;28;20418;-69
2023/11/19 04:57:10;;;;;;;3.40;0.30;;;12.40;99.90;;;;;;4992263;28;20398;-69
2023/11/19 04:59:36;;;;;;;3.40;0.20;;;12.50;99.90;;;;;;4991320;28;20765;-70
2023/11/19 05:02:03;;;;;;;3.40;0.22;;;12.50;99.90;;;;;;4991931;28;20387;-70
2023/11/19 05:04:29;;;;;;;3.40;0.20;;;12.50;99.90;;;;;;4991703;28;20817;-70
2023/11/19 05:06:55;;;;;;;3.40;0.30;;;12.40;99.90;;;;;;4991604;28;20402;-71
2023/11/19 05:09:20;;;;;;;3.40;0.30;;;12.40;99.90;;;;;;4991753;28;20390;-70
2023/11/19 05:11:46;;;;;;;3.40;0.20;;;12.50;99.90;;;;;;4992423;28;20469;-70
2023/11/19 05:14:11;;;;;;;4.80;0.30;;;12.50;99.90;;;;;;4991531;28;20442;-70
2023/11/19 05:16:45;;;;;;;3.40;0.20;;;12.40;99.90;;;;;;4991527;28;20399;-70
2023/11/19 05:19:11;;;;;;;3.40;0.30;;;12.40;99.90;;;;;;4990887;28;20792;-70
2023/11/19 05:21:36;;;;;;;3.40;0.20;;;12.40;99.90;;;;;;4989903;28;20441;-70
2023/11/19 05:24:05;;;;;;;3.40;0.20;;;12.40;99.90;;;;;;4990206;28;20398;-70
2023/11/19 05:26:31;;;;;;;3.30;0.20;;;12.40;99.90;;;;;;4990211;28;20395;-70
2023/11/19 05:28:56;;;;;;;3.40;0.30;;;12.30;1.00;;;;;;4990243;28;20861;-70
2023/11/19 05:31:22;;;;;;;3.40;0.30;;;12.30;1.00;;;;;;4991232;28;20401;-70
2023/11/19 05:33:47;;;;;;;3.40;0.20;;;12.20;1.00;;;;;;4990861;28;20441;-70
2023/11/19 05:36:13;;;;;;;3.30;0.20;;;12.10;99.90;;;;;;4991644;28;20461;-70
2023/11/19 05:38:39;;;;;;;3.80;0.30;;;12.10;99.90;;;;;;4991165;28;20402;-70
2023/11/19 05:41:05;;;;;;;3.30;0.30;;;12.20;99.90;;;;;;4991107;28;20403;-70
2023/11/19 05:43:32;;;;;;;3.40;0.30;;;12.20;99.90;;;;;;4990771;28;20424;-70
2023/11/19 05:45:57;;;;;;;3.30;0.20;;;12.20;99.90;;;;;;4991120;28;20505;-69
2023/11/19 05:48:25;;;;;;;5.00;0.40;;;12.10;99.90;;;;;;4971757;28;20400;-70
2023/11/19 05:50:51;;;;;;;3.30;0.20;;;12.10;99.90;;;;;;4971941;28;20400;-70
2023/11/19 05:53:16;;;;;;;3.33;0.30;;;12.20;99.90;;;;;;4972912;28;20396;-70
2023/11/19 05:55:57;;;;;;;3.73;0.30;;;12.20;99.90;;;;;;4990929;28;20429;-70
2023/11/19 05:58:25;;;;;;;3.30;0.30;;;12.20;99.90;;;;;;5001369;28;20899;-70
2023/11/19 06:00:51;;;;;;;3.80;0.40;;;12.20;99.90;;;;;;5010955;28;20443;-70
2023/11/19 06:03:17;;;;;;;3.30;0.30;;;12.20;99.90;;;;;;4992766;28;20813;-70
2023/11/19 06:05:45;;;;;;;3.37;0.30;;;12.20;99.90;;;;;;4991452;28;20402;-70
2023/11/19 06:08:12;;;;;;;3.50;0.30;;;12.20;99.90;;;;;;4990774;28;20409;-70
2023/11/19 06:10:39;;;;;;;3.30;0.20;;;12.20;99.90;;;;;;4991168;28;20753;-70
2023/11/19 06:13:05;;;;;;;3.50;0.40;;;12.40;99.90;;;;;;4990794;28;20386;-70
2023/11/19 06:15:32;;;;;;;4.00;0.30;;;12.40;1.00;;;;;;5009140;28;20412;-70
2023/11/19 06:18:00;;;;;;;3.35;0.20;;;12.40;1.00;;;;;;5010290;28;20404;-70
2023/11/19 06:20:27;;;;;;;3.40;0.30;;;12.50;1.00;;;;;;4996153;28;20410;-70
2023/11/19 06:22:53;;;;;;;3.40;0.30;;;12.50;1.00;;;;;;4990697;28;20764;-70
2023/11/19 06:25:19;;;;;;;4.00;0.40;;;12.40;1.00;;;;;;4990592;28;20390;-70
2023/11/19 06:27:44;;;;;;;3.40;0.20;;;12.50;1.00;;;;;;4990992;28;20944;-70
2023/11/19 06:30:11;;;;;;;3.40;0.30;;;12.50;1.00;;;;;;4990642;28;20427;-70
2023/11/19 06:32:37;;;;;;;3.40;0.30;;;12.60;1.00;;;;;;4990805;28;21032;-70
2023/11/19 06:35:04;;;;;;;3.40;0.30;;;12.60;1.00;;;;;;4990758;28;20437;-71
2023/11/19 06:37:30;;;;;;;3.50;0.30;;;12.60;1.00;;;;;;4990442;28;20422;-70
2023/11/19 06:39:55;;;;;;;3.50;0.40;;;12.70;1.00;;;;;;4990199;28;20394;-70
2023/11/19 06:42:21;;;;;;;3.78;0.40;;;12.70;1.00;;;;;;4990357;28;20954;-70
2023/11/19 06:44:46;;;;;;;3.40;0.30;;;12.60;99.90;;;;;;4989894;28;20410;-70
2023/11/19 06:47:12;;;;;;;3.50;0.20;;;12.60;1.00;;;;;;4990874;28;20398;-70
2023/11/19 06:49:37;;;;;;;3.40;0.30;;;12.60;1.00;;;;;;4990125;28;20410;-71
2023/11/19 06:52:04;;;;;;;3.30;0.20;;;12.60;1.00;;;;;;5008364;28;20468;-71
2023/11/19 06:54:30;;;;;;;3.40;0.30;;;12.60;1.00;;;;;;4991039;28;20489;-70
2023/11/19 06:56:57;;;;;;;4.00;0.50;;;12.60;1.00;;;;;;4987345;28;20402;-70
2023/11/19 06:59:23;;;;;;;3.80;0.50;;;12.50;1.00;;;;;;4991062;28;20411;-70
2023/11/19 07:01:48;;;;;;;3.65;0.50;;;12.60;1.00;;;;;;4990166;28;20402;-70
2023/11/19 07:04:14;;;;;;;3.70;0.50;;;12.70;1.00;;;;;;4988063;28;20410;-70
2023/11/19 07:06:42;;;;;;;3.53;0.40;;;12.60;1.00;;;;;;4987901;28;20410;-70
2023/11/19 07:09:09;;;;;;;5.82;0.60;;;12.50;1.00;;;;;;4986358;28;20925;-70
2023/11/19 07:11:36;;;;;;;3.40;0.30;;;12.50;1.00;;;;;;4991690;28;20442;-70
2023/11/19 07:14:02;;;;;;;7.00;0.50;;;12.50;20.00;;;;;;4989403;28;20394;-70
2023/11/19 07:16:28;;;;;;;3.38;0.30;;;12.40;99.90;;;;;;4989470;28;20493;-70
2023/11/19 07:18:54;;;;;;;3.50;0.40;;;12.50;99.90;;;;;;4989185;28;20537;-70
2023/11/19 07:21:19;;;;;;;3.40;0.30;;;12.50;28.40;;;;;;4984728;28;20404;-70
2023/11/19 07:23:46;;;;;;;3.40;0.30;;;12.60;99.90;;;;;;4991447;28;20860;-70
2023/11/19 07:26:12;;;;;;;3.50;0.30;;;12.60;1.00;;;;;;4988743;28;20418;-70
2023/11/19 07:28:39;;;;;;;3.40;0.30;;;12.70;1.00;;;;;;4989650;28;20932;-71
2023/11/19 07:31:07;;;;;;;3.40;0.30;;;12.80;1.00;;;;;;4990340;28;20397;-71
2023/11/19 07:33:33;;;;;;;3.40;0.32;;;12.80;1.00;;;;;;4989829;28;20403;-71
2023/11/19 07:35:59;;;;;;;3.50;0.30;;;12.80;1.00;;;;;;4989797;28;20423;-71
2023/11/19 07:38:24;;;;;;;3.40;0.30;;;12.80;1.00;;;;;;4989483;28;20456;-71
2023/11/19 07:40:50;;;;;;;3.50;0.40;;;12.80;99.90;;;;;;4989716;28;20430;-71
2023/11/19 07:43:16;;;;;;;3.40;0.30;;;12.80;99.90;;;;;;4990186;28;20389;-71
2023/11/19 07:45:43;;;;;;;4.15;0.50;;;12.80;1.00;;;;;;4989817;28;20441;-71
2023/11/19 07:48:09;;;;;;;4.10;0.40;;;13.00;1.00;;;;;;4989867;28;20382;-71
2023/11/19 07:50:34;;;;;;;3.60;0.47;;;13.00;99.90;;;;;;4989420;28;20460;-71
2023/11/19 07:53:00;;;;;;;3.50;0.50;;;13.00;99.90;;;;;;4989374;28;20409;-71
2023/11/19 07:55:27;;;;;;;3.40;0.40;;;13.00;99.90;;;;;;4991014;28;20425;-70
2023/11/19 07:57:52;;;;;;;5.30;0.70;;;12.90;99.90;;;;;;5001883;28;20457;-71
2023/11/19 08:00:19;;;;;;;3.60;0.50;;;13.00;99.90;;;;;;5013362;28;20456;-71
2023/11/19 08:02:45;;;;;;;4.07;0.40;;;13.00;99.90;;;;;;5000526;28;20403;-71
2023/11/19 08:05:11;;;;;;;4.70;0.50;;;13.10;99.90;;;;;;4993179;28;20424;-71
2023/11/19 08:07:37;;;;;;;3.60;0.50;;;13.20;99.90;;;;;;4988770;28;20437;-71
2023/11/19 08:10:02;;;;;;;3.43;0.40;;;13.20;99.90;;;;;;4985322;28;20404;-71
2023/11/19 08:12:28;;;;;;;4.10;0.57;;;13.30;99.90;;;;;;4987031;28;20395;-71
2023/11/19 08:14:53;;;;;;;3.43;0.33;;;13.30;99.90;;;;;;4991818;28;20489;-71
2023/11/19 08:17:19;;;;;;;4.50;0.50;;;13.40;99.90;;;;;;4988646;28;20509;-71
2023/11/19 08:19:44;;;;;;;3.53;0.40;;;13.40;99.90;;;;;;4994911;28;20490;-71
2023/11/19 08:22:10;;;;;;;3.50;0.40;;;13.50;99.90;;;;;;4980406;28;20410;-71
2023/11/19 08:24:36;;;;;;;4.00;0.60;;;13.60;99.90;;;;;;4986117;28;20492;-71
2023/11/19 08:27:01;;;;;;;3.70;0.50;;;14.10;99.90;;;;;;4979490;28;20410;-69
2023/11/19 08:29:27;;;;;;;4.20;1.00;;;14.60;99.90;;;;;;4984847;28;20418;-69
2023/11/19 08:31:53;;;;;;;3.90;0.60;;;14.60;23.20;;;;;;4982605;28;20439;-69
2023/11/19 08:34:18;;;;;;;3.90;0.50;;;14.40;14.90;;;;;;4991838;28;20497;-69
2023/11/19 08:36:44;;;;;;;3.80;0.60;;;14.10;14.10;;;;;;4990554;28;20477;-69
2023/11/19 08:39:09;;;;;;;3.60;0.40;;;13.70;31.80;;;;;;5003488;28;20442;-71
2023/11/19 08:41:35;;;;;;;3.70;0.50;;;13.40;99.90;;;;;;4980732;28;20444;-71
2023/11/19 08:44:00;;;;;;;3.97;0.60;;;13.30;99.90;;;;;;4982873;28;20425;-71
2023/11/19 08:46:26;;;;;;;3.50;0.40;;;13.30;99.90;;;;;;4983058;28;20430;-71
2023/11/19 08:48:51;;;;;;;3.50;0.50;;;13.30;99.90;;;;;;4987869;28;20850;-71
2023/11/19 08:51:17;;;;;;;3.60;0.50;;;13.40;1.00;;;;;;4980684;28;20399;-71
2023/11/19 08:53:42;;;;;;;3.50;0.50;;;13.60;1.00;;;;;;4981549;28;20507;-70
2023/11/19 08:56:08;;;;;;;4.30;0.70;;;13.70;99.90;;;;;;4980354;28;20430;-71
2023/11/19 08:58:34;;;;;;;3.60;0.60;;;13.90;99.90;;;;;;4995900;28;20465;-70
2023/11/19 09:01:00;;;;;;;3.60;0.57;;;;;;;;;;4982847;28;20474;-68
2023/11/19 09:03:26;;;;;;;4.50;0.70;;;;;;;;;;4983336;28;20410;-68
2023/11/19 09:05:52;;;;;;;4.10;0.70;;;;;;;;;;4987542;28;20415;-69
2023/11/19 09:08:18;;;;;;;5.00;0.70;;;;;;;;;;4979106;28;20812;-70
2023/11/19 09:10:44;;;;;;;4.00;0.50;;;;;;;;;;4991799;28;20442;-70
2023/11/19 09:13:10;;;;;;;5.13;0.60;;;;;;;;;;4972343;28;20412;-71
2023/11/19 09:15:36;;;;;;;3.90;0.40;;;;;;;;;;4988370;28;20455;-71
2023/11/19 09:18:03;;;;;;;3.90;0.30;;;;;;;;;;4975338;28;21240;-69
2023/11/19 09:20:32;;;;;;;4.00;0.50;;;16.70;1.00;;;;;;4976854;28;20408;-69
2023/11/19 09:22:57;;;;;;;5.10;0.60;;;16.40;1.00;;;;;;4979374;28;20408;-68
2023/11/19 09:25:23;;;;;;;4.10;0.70;;;16.00;1.00;;;;;;4988045;28;20869;-68
2023/11/19 09:27:49;;;;;;;4.00;0.50;;;15.70;1.00;;;;;;4976763;28;20475;-68
2023/11/19 09:30:15;;;;;;;4.30;0.40;;;15.40;1.00;;;;;;4995217;28;20471;-68
2023/11/19 09:32:41;;;;;;;4.00;0.50;;;15.30;1.00;;;;;;4980250;28;20404;-68
2023/11/19 09:35:07;;;;;;;4.00;0.60;;;14.80;1.00;;;;;;4977452;28;20664;-69
2023/11/19 09:37:32;;;;;;;3.90;0.60;;;14.70;1.00;;;;;;4976469;28;20820;-71
2023/11/19 09:39:58;;;;;;;3.60;0.30;;;14.50;1.00;;;;;;4985928;28;20458;-71
2023/11/19 09:42:24;;;;;;;3.70;0.40;;;14.30;1.00;;;;;;4989450;28;20415;-71
2023/11/19 09:44:50;;;;;;;4.20;0.60;;;14.40;1.00;;;;;;4987214;28;20952;-71
2023/11/19 09:47:17;;;;;;;4.00;0.35;;;14.80;1.00;;;;;;4982586;28;20458;-69
2023/11/19 09:49:43;;;;;;;3.70;0.40;;;15.20;1.00;;;;;;4980778;28;20408;-70
2023/11/19 09:52:09;;;;;;;3.80;0.33;;;15.30;1.00;;;;;;4980854;28;20463;-69
2023/11/19 09:54:34;;;;;;;4.00;0.60;;;16.20;1.00;;;;;;4989714;28;20406;-69
2023/11/19 09:57:05;;;;;;;5.17;0.70;;;16.80;1.00;;;;;;4993496;28;20410;-70
2023/11/19 09:59:32;;;;;;;5.00;0.90;;;17.30;1.00;;;;;;4983557;28;20453;-71
2023/11/19 10:01:59;;;;;;;4.00;0.30;;;18.00;1.00;;;;;;4990534;28;20381;-71
2023/11/19 10:04:28;;;;;;;6.20;0.90;;;18.10;1.00;;;;;;4986076;28;20403;-69
2023/11/19 10:06:53;;;;;;;5.10;0.90;;;17.60;1.00;;;;;;4979070;28;20424;-70
2023/11/19 10:09:19;;;;;;;3.90;0.30;;;17.60;1.00;;;;;;4976942;28;20404;-70
2023/11/19 10:11:44;;;;;;;4.30;0.60;;;17.10;1.00;;;;;;4992063;28;20423;-70
2023/11/19 10:14:10;;;;;;;4.40;0.60;;;16.20;1.00;;;;;;4984710;28;20419;-70
2023/11/19 10:16:36;;;;;;;4.80;0.43;;;15.80;1.00;;;;;;4992723;28;20505;-69
2023/11/19 10:19:02;;;;;;;4.40;0.60;;;15.70;1.00;;;;;;4997655;28;20489;-70
2023/11/19 10:21:28;;;;;;;3.90;0.40;;;16.00;1.00;;;;;;4972452;28;20413;-70
2023/11/19 10:23:59;;;;;;;3.90;0.40;;;15.90;1.00;;;;;;4979775;28;20753;-68
2023/11/19 10:26:25;;;;;;;4.70;0.60;;;16.00;1.00;;;;;;4975382;28;20412;-69
2023/11/19 10:28:51;;;;;;;4.55;0.82;;;16.00;1.00;;;;;;4971945;28;20934;-70
2023/11/19 10:31:18;;;;;;;5.80;0.80;;;15.60;1.00;;;;;;4987257;28;20413;-70
2023/11/19 10:33:45;;;;;;;4.00;0.40;;;15.50;1.00;;;;;;4980312;28;20404;-71
2023/11/19 10:36:14;;;;;;;4.10;0.40;;;15.40;1.00;;;;;;4976711;28;20414;-70
2023/11/19 10:38:50;;;;;;;4.10;0.40;;;15.50;1.00;;;;;;4996178;28;20749;-70
2023/11/19 10:41:27;;;;;;;4.10;0.50;;;15.70;1.00;;;;;;4985364;28;20423;-70
2023/11/19 10:43:52;;;;;;;4.32;0.57;;;16.10;1.00;;;;;;4987335;28;20447;-70
2023/11/19 10:46:22;;;;;;;4.03;0.53;;;16.50;1.00;;;;;;4973683;28;20490;-70
2023/11/19 10:48:48;;;;;;;4.10;0.57;;;16.60;1.00;;;;;;4983516;28;20432;-70
2023/11/19 10:51:23;;;;;;;3.90;0.50;;;17.00;1.00;;;;;;4980487;28;20502;-70
2023/11/19 10:53:50;;;;;;;6.57;1.10;;;17.10;1.00;;;;;;4980289;28;20458;-70
2023/11/19 10:56:20;;;;;;;4.30;0.50;;;16.90;1.00;;;;;;4980603;28;20453;-70
2023/11/19 10:58:48;;;;;;;4.10;0.40;;;16.30;1.00;;;;;;4979313;28;20408;-70
2023/11/19 11:01:20;;;;;;;5.20;0.77;;;16.20;1.00;;;;;;4987993;28;20402;-70
2023/11/19 11:03:47;;;;;;;4.30;0.70;;;16.10;1.00;;;;;;4986246;28;20430;-70
2023/11/19 11:06:13;;;;;;;3.90;0.40;;;15.80;1.00;;;;;;4987035;28;20426;-70
2023/11/19 11:08:39;;;;;;;5.43;0.30;;;15.60;1.00;;;;;;4983199;28;20414;-70
2023/11/19 11:11:07;;;;;;;4.10;0.50;;;15.50;1.00;;;;;;4982291;28;20421;-70
2023/11/19 11:13:34;;;;;;;4.67;0.60;;;15.60;1.00;;;;;;4984186;28;20410;-70
2023/11/19 11:16:01;;;;;;;4.20;0.60;;;15.70;1.00;;;;;;4988504;28;20429;-70
2023/11/19 11:18:27;;;;;;;4.10;0.60;;;15.60;1.00;;;;;;4983811;28;20432;-70
2023/11/19 11:21:09;;;;;;;4.00;0.40;;;15.50;1.00;;;;;;4985053;28;20451;-70
2023/11/19 11:24:17;;;;;;;4.20;0.50;;;15.50;1.00;;;;;;4998715;28;20534;-70
2023/11/19 11:26:52;;;;;;;5.50;0.50;;;15.50;1.00;;;;;;4975571;28;20505;-70
2023/11/19 11:29:34;;;;;;;5.50;0.60;;;15.50;1.00;;;;;;4984169;28;20425;-70
2023/11/19 11:32:21;;;;;;;5.72;0.50;;;15.90;1.00;;;;;;4991346;28;20411;-72
2023/11/19 11:35:26;;;;;;;7.70;0.68;;;16.50;1.00;;;;;;4993928;28;20539;-70
2023/11/19 11:38:06;;;;;;;4.30;0.80;;;16.80;1.00;;;;;;4985195;28;20424;-70
2023/11/19 11:40:32;;;;;;;4.07;0.50;;;17.10;1.00;;;;;;4975985;28;20478;-70
2023/11/19 11:42:59;;;;;;;5.00;0.60;;;17.20;1.00;;;;;;4981936;28;20414;-71
2023/11/19 11:45:43;;;;;;;4.50;0.70;;;17.30;1.00;;;;;;4983897;28;20476;-70
2023/11/19 11:48:13;;;;;;;4.47;0.68;;;17.10;1.00;;;;;;4992292;28;20405;-69
2023/11/19 11:50:53;;;;;;;4.23;0.70;;;17.20;1.00;;;;;;4982509;28;20820;-69
2023/11/19 11:53:22;;;;;;;5.60;0.70;;;17.10;1.00;;;;;;4997598;28;20412;-70
2023/11/19 11:55:48;;;;;;;4.10;0.50;;;17.10;1.00;;;;;;4979109;28;20526;-69
2023/11/19 11:58:17;;;;;;;4.50;0.60;;;16.80;1.00;;;;;;4999137;28;20494;-69
2023/11/19 12:00:43;;;;;;;3.90;0.40;;;16.70;1.00;;;;;;4985496;28;20489;-69
2023/11/19 12:03:11;;;;;;;3.90;0.40;;;16.20;1.00;;;;;;4973877;28;20479;-70
2023/11/19 12:05:42;;;;;;;4.50;0.80;;;16.00;1.00;;;;;;4981662;28;20445;-69
2023/11/19 12:08:11;;;;;;;4.00;0.40;;;15.90;1.00;;;;;;4993577;28;20513;-69
2023/11/19 12:10:43;;;;;;;6.00;0.77;;;16.10;1.00;;;;;;4992838;28;21068;-69
2023/11/19 12:13:09;;;;;;;4.20;0.40;;;16.30;1.00;;;;;;4980725;28;20734;-69
2023/11/19 12:15:57;;;;;;;4.32;0.60;;;16.20;1.00;;;;;;4984056;28;20513;-69
2023/11/19 12:18:24;;;;;;;3.90;0.50;;;16.10;1.00;;;;;;4989135;28;20419;-69
2023/11/19 12:20:50;;;;;;;4.50;0.68;;;16.00;1.00;;;;;;4979479;28;20889;-69
2023/11/19 12:23:16;;;;;;;4.10;0.50;;;16.20;1.00;;;;;;4988092;28;20505;-69
2023/11/19 12:25:42;;;;;;;4.22;0.60;;;16.30;1.00;;;;;;4989249;28;20506;-69
2023/11/19 12:28:12;;;;;;;5.00;0.60;;;16.50;1.00;;;;;;4982598;28;20410;-70
2023/11/19 12:30:38;;;;;;;4.10;0.50;;;16.70;1.00;;;;;;4977198;28;20412;-69
2023/11/19 12:33:09;;;;;;;3.90;0.40;;;17.00;1.00;;;;;;4985791;28;20417;-70
2023/11/19 12:35:39;;;;;;;4.00;0.47;;;16.60;1.00;;;;;;4988325;28;20496;-69
2023/11/19 12:38:04;;;;;;;4.00;0.40;;;16.40;1.00;;;;;;4997951;28;20411;-70
2023/11/19 12:40:30;;;;;;;4.80;0.70;;;16.40;1.00;;;;;;4977925;28;20970;-69
2023/11/19 12:42:55;;;;;;;4.30;0.50;;;16.50;1.00;;;;;;4979088;28;20413;-69
2023/11/19 12:45:23;;;;;;;3.90;0.40;;;16.60;1.00;;;;;;4994095;28;20497;-70
2023/11/19 12:47:50;;;;;;;3.90;0.30;;;16.70;1.00;;;;;;5002331;28;20387;-69
2023/11/19 12:50:20;;;;;;;5.60;0.70;;;16.80;1.00;;;;;;4992920;28;20823;-69
2023/11/19 12:52:58;;;;;;;3.92;0.30;;;16.70;1.00;;;;;;4981398;28;20404;-70
2023/11/19 12:55:29;;;;;;;5.30;0.50;;;16.30;1.00;;;;;;4990216;28;21025;-69